createdAt,value
2019-04-13T00:00:27.447Z,2.60
2019-04-13T00:02:30.776Z,2.60
2019-04-13T00:04:45.769Z,2.60
2019-04-13T00:06:51.204Z,2.60
2019-04-13T00:08:52.610Z,2.60
2019-04-13T00:10:58.525Z,2.60
2019-04-13T00:12:59.962Z,2.60
2019-04-13T00:15:01.464Z,2.60
2019-04-13T00:17:04.339Z,2.60
2019-04-13T00:19:05.778Z,2.60
2019-04-13T00:21:07.176Z,2.60
2019-04-13T00:23:08.564Z,2.60
2019-04-13T00:25:10.084Z,2.60
2019-04-13T00:27:11.537Z,2.60
2019-04-13T00:29:12.920Z,2.60
2019-04-13T00:31:14.365Z,2.60
2019-04-13T00:33:15.745Z,2.60
2019-04-13T00:35:17.154Z,2.60
2019-04-13T00:37:18.606Z,2.60
2019-04-13T00:39:20.001Z,2.50
2019-04-13T00:41:21.450Z,2.50
2019-04-13T00:43:22.941Z,2.50
2019-04-13T00:45:24.334Z,2.50
2019-04-13T00:47:25.949Z,2.50
2019-04-13T00:49:27.350Z,2.60
2019-04-13T00:51:28.732Z,2.60
2019-04-13T00:53:30.176Z,2.60
2019-04-13T00:55:31.575Z,2.60
2019-04-13T00:57:32.985Z,2.50
2019-04-13T00:59:34.434Z,2.50
2019-04-13T01:01:35.838Z,2.50
2019-04-13T01:03:40.499Z,2.50
2019-04-13T01:05:41.934Z,2.60
2019-04-13T01:07:43.315Z,2.60
2019-04-13T01:09:44.783Z,2.60
2019-04-13T01:11:46.193Z,2.60
2019-04-13T01:13:47.597Z,2.60
2019-04-13T01:15:49.045Z,2.60
2019-04-13T01:17:50.409Z,2.60
2019-04-13T01:19:51.856Z,2.60
2019-04-13T01:21:53.283Z,2.60
2019-04-13T01:23:54.770Z,2.60
2019-04-13T01:25:56.190Z,2.60
2019-04-13T01:27:57.623Z,2.60
2019-04-13T01:29:59.006Z,2.60
2019-04-13T01:32:00.419Z,2.50
2019-04-13T01:34:02.047Z,2.50
2019-04-13T01:36:03.440Z,2.60
2019-04-13T01:38:04.844Z,2.60
2019-04-13T01:40:06.491Z,2.60
2019-04-13T01:42:07.870Z,2.60
2019-04-13T01:44:09.290Z,2.60
2019-04-13T01:46:10.721Z,2.50
2019-04-13T01:48:12.630Z,2.50
2019-04-13T01:50:14.470Z,2.50
2019-04-13T01:52:15.883Z,2.50
2019-04-13T01:54:17.277Z,2.50
2019-04-13T01:56:18.730Z,2.40
2019-04-13T01:58:20.181Z,2.50
2019-04-13T02:00:29.468Z,2.50
2019-04-13T02:02:38.394Z,2.50
2019-04-13T02:04:44.617Z,2.50
2019-04-13T02:07:06.017Z,2.60
2019-04-13T02:09:14.763Z,2.50
2019-04-13T02:11:18.060Z,2.50
2019-04-13T02:13:19.505Z,2.50
2019-04-13T02:15:20.901Z,2.50
2019-04-13T02:17:22.290Z,2.40
2019-04-13T02:19:23.791Z,2.50
2019-04-13T02:21:25.214Z,2.50
2019-04-13T02:23:26.653Z,2.40
2019-04-13T02:25:28.078Z,2.40
2019-04-13T02:27:29.463Z,2.40
2019-04-13T02:29:30.875Z,2.40
2019-04-13T02:31:32.300Z,2.40
2019-04-13T02:33:33.965Z,2.40
2019-04-13T02:35:36.735Z,2.50
2019-04-13T02:37:38.433Z,2.50
2019-04-13T02:39:39.911Z,2.50
2019-04-13T02:41:41.458Z,2.50
2019-04-13T02:43:42.867Z,2.40
2019-04-13T02:45:44.245Z,2.40
2019-04-13T02:47:45.677Z,2.40
2019-04-13T02:49:47.120Z,2.40
2019-04-13T02:51:48.541Z,2.50
2019-04-13T02:53:49.941Z,2.50
2019-04-13T02:55:51.359Z,2.50
2019-04-13T02:57:52.764Z,2.60
2019-04-13T02:59:54.254Z,2.50
2019-04-13T03:01:56.034Z,2.40
2019-04-13T03:03:57.508Z,2.40
2019-04-13T03:05:58.889Z,2.40
2019-04-13T03:08:00.360Z,2.30
2019-04-13T03:10:04.766Z,2.40
2019-04-13T03:12:06.172Z,2.40
2019-04-13T03:14:07.793Z,2.40
2019-04-13T03:16:11.203Z,2.40
2019-04-13T03:18:14.510Z,2.30
2019-04-13T03:20:23.832Z,2.40
2019-04-13T03:22:25.224Z,2.40
2019-04-13T03:24:26.644Z,2.30
2019-04-13T03:26:28.026Z,2.20
2019-04-13T03:28:29.473Z,2.30
2019-04-13T03:32:56.740Z,2.20
2019-04-13T03:35:17.985Z,2.20
2019-04-13T03:37:39.281Z,2.20
2019-04-13T03:40:00.551Z,2.10
2019-04-13T03:42:22.115Z,2.10
2019-04-13T03:44:43.513Z,2.10
2019-04-13T03:47:04.874Z,2.10
2019-04-13T03:49:26.144Z,2.10
2019-04-13T03:51:47.401Z,2.10
2019-04-13T03:54:08.909Z,2.10
2019-04-13T03:56:50.041Z,2.10
2019-04-13T03:59:11.351Z,2.00
2019-04-13T04:01:32.615Z,2.10
2019-04-13T04:03:53.923Z,2.00
2019-04-13T04:06:15.248Z,2.10
2019-04-13T04:08:30.074Z,2.00
2019-04-13T04:10:51.568Z,2.10
2019-04-13T04:13:12.839Z,2.10
2019-04-13T04:15:34.094Z,2.10
2019-04-13T04:17:55.393Z,2.10
2019-04-13T04:20:16.674Z,2.10
2019-04-13T04:22:37.963Z,2.00
2019-04-13T04:24:59.259Z,2.00
2019-04-13T04:27:20.603Z,2.00
2019-04-13T04:29:22.007Z,2.00
2019-04-13T04:31:43.395Z,2.00
2019-04-13T04:34:04.695Z,2.00
2019-04-13T04:36:26.075Z,2.10
2019-04-13T04:38:47.407Z,2.00
2019-04-13T04:41:08.687Z,2.00
2019-04-13T04:43:29.963Z,2.00
2019-04-13T04:45:51.562Z,2.00
2019-04-13T04:50:07.338Z,2.00
2019-04-13T04:52:28.627Z,2.00
2019-04-13T04:54:49.872Z,2.00
2019-04-13T04:57:11.186Z,2.00
2019-04-13T04:59:32.440Z,2.00
2019-04-13T05:01:53.696Z,2.00
2019-04-13T05:04:15.008Z,2.10
2019-04-13T05:06:36.355Z,2.10
2019-04-13T05:09:20.085Z,2.10
2019-04-13T05:14:52.764Z,2.10
2019-04-13T05:20:58.252Z,2.20
2019-04-13T05:23:19.142Z,2.20
2019-04-13T05:25:41.118Z,2.20
2019-04-13T05:28:38.730Z,2.20
2019-04-13T05:31:11.709Z,2.20
2019-04-13T05:34:13.510Z,2.30
2019-04-13T05:36:19.168Z,2.30
2019-04-13T05:38:25.295Z,2.30
2019-04-13T05:41:09.887Z,2.40
2019-04-13T05:46:40.564Z,2.40
2019-04-13T05:58:12.153Z,2.50
2019-04-13T06:01:29.798Z,2.50
2019-04-13T06:25:38.834Z,2.90
2019-04-13T06:31:43.812Z,2.90
2019-04-13T06:34:30.190Z,3.00
2019-04-13T06:36:52.515Z,3.00
2019-04-13T06:42:45.441Z,3.20
2019-04-13T06:45:27.431Z,3.30
2019-04-13T06:48:23.690Z,3.40
2019-04-13T06:56:34.738Z,3.70
2019-04-13T06:58:58.334Z,3.80
2019-04-13T07:01:39.608Z,3.80
2019-04-13T07:04:01.365Z,4.00
2019-04-13T07:06:22.840Z,4.00
2019-04-13T07:09:04.608Z,4.00
2019-04-13T07:11:46.225Z,4.10
2019-04-13T07:19:48.889Z,4.20
2019-04-13T07:22:12.525Z,4.20
2019-04-13T07:24:34.757Z,4.20
2019-04-13T07:26:56.686Z,4.20
2019-04-13T07:29:18.300Z,4.20
2019-04-13T07:31:40.151Z,4.30
2019-04-13T07:34:01.748Z,4.30
2019-04-13T07:36:03.443Z,4.50
2019-04-13T07:38:25.133Z,4.50
2019-04-13T07:40:49.120Z,4.60
2019-04-13T07:43:23.526Z,4.80
2019-04-13T07:46:05.330Z,4.90
2019-04-13T07:48:49.701Z,5.00
2019-04-13T07:57:05.402Z,5.40
2019-04-13T07:59:48.119Z,5.30
2019-04-13T08:02:30.187Z,5.40
2019-04-13T08:04:52.093Z,5.50
2019-04-13T08:07:14.054Z,5.60
2019-04-13T08:09:35.575Z,5.60
2019-04-13T08:11:56.963Z,5.70
2019-04-13T08:20:33.977Z,5.90
2019-04-13T08:23:14.800Z,5.90
2019-04-13T08:25:16.465Z,6.00
2019-04-13T08:27:18.701Z,6.10
2019-04-13T08:29:21.106Z,6.10
2019-04-13T08:31:26.445Z,6.00
2019-04-13T08:33:28.651Z,6.20
2019-04-13T08:35:30.422Z,6.30
2019-04-13T08:37:33.662Z,6.30
2019-04-13T08:39:36.854Z,6.20
2019-04-13T08:41:38.749Z,6.40
2019-04-13T08:43:40.456Z,6.50
2019-04-13T08:45:44.220Z,6.60
2019-04-13T08:47:47.123Z,6.50
2019-04-13T08:49:48.739Z,6.60
2019-04-13T08:51:51.063Z,6.70
2019-04-13T08:53:52.934Z,6.70
2019-04-13T08:55:54.419Z,6.80
2019-04-13T08:57:56.669Z,6.80
2019-04-13T08:59:58.193Z,6.80
2019-04-13T09:01:59.617Z,6.70
2019-04-13T09:04:00.987Z,6.70
2019-04-13T09:06:02.352Z,6.70
2019-04-13T09:08:03.878Z,6.70
2019-04-13T09:10:07.124Z,6.80
2019-04-13T09:12:11.417Z,6.90
2019-04-13T09:14:14.086Z,7.10
2019-04-13T09:16:15.299Z,7.10
2019-04-13T09:18:35.004Z,7.10
2019-04-13T09:20:38.795Z,7.30
2019-04-13T09:22:41.970Z,7.50
2019-04-13T09:24:43.429Z,7.50
2019-04-13T09:26:44.825Z,7.60
2019-04-13T09:28:46.221Z,7.70
2019-04-13T09:30:47.594Z,7.70
2019-04-13T09:32:49.002Z,7.70
2019-04-13T09:34:50.398Z,7.70
2019-04-13T09:36:51.809Z,7.80
2019-04-13T09:38:54.113Z,7.90
2019-04-13T09:40:55.477Z,7.90
2019-04-13T09:42:57.886Z,7.90
2019-04-13T09:45:03.437Z,7.80
2019-04-13T09:47:06.336Z,7.80
2019-04-13T09:49:08.012Z,7.70
2019-04-13T09:51:09.376Z,7.60
2019-04-13T09:53:10.769Z,7.60
2019-04-13T09:55:15.675Z,7.80
2019-04-13T09:57:15.587Z,8.00
2019-04-13T09:59:16.943Z,8.00
2019-04-13T10:01:18.320Z,8.10
2019-04-13T10:03:19.749Z,8.20
2019-04-13T10:05:21.135Z,8.10
2019-04-13T10:07:22.522Z,8.10
2019-04-13T10:09:23.916Z,8.20
2019-04-13T10:11:30.436Z,8.30
2019-04-13T10:13:39.373Z,8.20
2019-04-13T10:15:48.805Z,8.20
2019-04-13T10:17:55.548Z,8.10
2019-04-13T10:19:56.914Z,8.10
2019-04-13T10:21:58.284Z,8.30
2019-04-13T10:23:59.693Z,8.30
2019-04-13T10:26:01.079Z,8.30
2019-04-13T10:28:02.441Z,8.50
2019-04-13T10:30:04.786Z,8.70
2019-04-13T10:32:06.339Z,8.70
2019-04-13T10:34:07.904Z,8.80
2019-04-13T10:36:09.320Z,8.80
2019-04-13T10:38:10.711Z,8.90
2019-04-13T10:40:14.760Z,8.90
2019-04-13T10:42:15.546Z,8.90
2019-04-13T10:44:17.516Z,9.00
2019-04-13T10:46:29.563Z,8.90
2019-04-13T10:48:35.739Z,8.90
2019-04-13T10:50:39.042Z,9.00
2019-04-13T10:52:40.415Z,8.90
2019-04-13T10:54:41.820Z,8.70
2019-04-13T10:56:43.213Z,8.60
2019-04-13T10:58:44.583Z,8.60
2019-04-13T11:00:45.984Z,8.60
2019-04-13T11:02:47.394Z,8.60
2019-04-13T11:04:48.758Z,8.60
2019-04-13T11:06:52.626Z,8.50
2019-04-13T11:08:53.453Z,8.40
2019-04-13T11:10:54.842Z,8.40
2019-04-13T11:12:56.234Z,8.50
2019-04-13T11:14:57.643Z,8.50
2019-04-13T11:16:59.262Z,8.50
2019-04-13T11:19:00.636Z,8.30
2019-04-13T11:21:02.886Z,8.30
2019-04-13T11:23:04.358Z,8.30
2019-04-13T11:25:06.257Z,8.40
2019-04-13T11:27:08.263Z,8.50
2019-04-13T11:29:11.267Z,8.60
2019-04-13T11:31:12.933Z,8.60
2019-04-13T11:33:14.334Z,8.60
2019-04-13T11:35:15.708Z,8.60
2019-04-13T11:37:17.136Z,8.70
2019-04-13T11:39:18.643Z,8.80
2019-04-13T11:41:38.485Z,8.80
2019-04-13T11:43:58.120Z,8.70
2019-04-13T11:46:04.046Z,8.70
2019-04-13T11:48:07.318Z,8.60
2019-04-13T11:50:10.929Z,8.70
2019-04-13T11:52:12.311Z,8.60
2019-04-13T11:54:13.748Z,8.70
2019-04-13T11:56:15.261Z,8.70
2019-04-13T11:58:16.640Z,8.80
2019-04-13T12:00:37.724Z,9.00
2019-04-13T12:02:41.040Z,9.10
2019-04-13T12:04:44.344Z,9.10
2019-04-13T12:07:04.238Z,8.90
2019-04-13T12:09:19.403Z,8.80
2019-04-13T12:11:25.336Z,8.70
2019-04-13T12:13:31.753Z,8.70
2019-04-13T12:15:38.803Z,8.70
2019-04-13T12:17:52.006Z,8.60
2019-04-13T12:20:01.374Z,8.60
2019-04-13T12:22:04.744Z,8.50
2019-04-13T12:24:08.142Z,8.50
2019-04-13T12:26:09.519Z,8.50
2019-04-13T12:28:10.945Z,8.70
2019-04-13T12:30:23.511Z,8.80
2019-04-13T12:32:26.696Z,9.00
2019-04-13T12:34:28.104Z,9.00
2019-04-13T12:36:29.517Z,9.10
2019-04-13T12:38:31.116Z,9.00
2019-04-13T12:40:34.906Z,9.10
2019-04-13T12:42:36.494Z,9.20
2019-04-13T12:44:38.403Z,9.20
2019-04-13T12:46:40.035Z,9.20
2019-04-13T12:48:41.399Z,9.10
2019-04-13T12:50:42.875Z,9.20
2019-04-13T12:52:44.294Z,9.20
2019-04-13T12:54:46.010Z,9.40
2019-04-13T12:56:47.670Z,9.60
2019-04-13T12:58:49.641Z,9.50
2019-04-13T13:00:59.043Z,9.40
2019-04-13T13:02:59.763Z,9.60
2019-04-13T13:05:03.433Z,9.70
2019-04-13T13:07:06.662Z,9.80
2019-04-13T13:09:13.543Z,9.80
2019-04-13T13:11:13.310Z,9.80
2019-04-13T13:13:14.659Z,9.70
2019-04-13T13:15:16.369Z,9.60
2019-04-13T13:17:18.453Z,9.60
2019-04-13T13:19:21.133Z,9.60
2019-04-13T13:21:22.538Z,9.50
2019-04-13T13:23:23.967Z,9.60
2019-04-13T13:25:25.496Z,9.60
2019-04-13T13:27:26.912Z,9.70
2019-04-13T13:29:28.285Z,9.70
2019-04-13T13:31:29.976Z,9.80
2019-04-13T13:33:31.370Z,9.80
2019-04-13T13:35:32.951Z,9.90
2019-04-13T13:37:34.463Z,9.80
2019-04-13T13:39:35.930Z,9.80
2019-04-13T13:41:37.305Z,9.80
2019-04-13T13:43:38.704Z,9.80
2019-04-13T13:45:40.244Z,9.80
2019-04-13T13:47:41.707Z,9.70
2019-04-13T13:49:43.175Z,9.50
2019-04-13T13:51:55.575Z,9.60
2019-04-13T13:53:47.854Z,9.60
2019-04-13T13:55:49.251Z,9.70
2019-04-13T13:57:52.539Z,9.60
2019-04-13T13:59:53.936Z,9.80
2019-04-13T14:01:57.471Z,9.80
2019-04-13T14:03:58.842Z,9.90
2019-04-13T14:06:00.216Z,10.00
2019-04-13T14:08:03.836Z,10.00
2019-04-13T14:10:14.818Z,9.80
2019-04-13T14:12:16.199Z,9.60
2019-04-13T14:14:17.571Z,9.30
2019-04-13T14:16:18.985Z,9.30
2019-04-13T14:18:20.392Z,9.30
2019-04-13T14:20:21.780Z,9.40
2019-04-13T14:22:23.193Z,9.50
2019-04-13T14:24:24.610Z,9.30
2019-04-13T14:26:26.080Z,9.40
2019-04-13T14:28:27.458Z,9.50
2019-04-13T14:30:28.860Z,9.40
2019-04-13T14:32:30.631Z,9.30
2019-04-13T14:34:32.002Z,9.30
2019-04-13T14:36:35.581Z,9.40
2019-04-13T14:38:36.798Z,9.40
2019-04-13T14:40:38.759Z,9.30
2019-04-13T14:42:40.717Z,9.30
2019-04-13T14:44:42.082Z,9.40
2019-04-13T14:46:43.468Z,9.30
2019-04-13T14:48:44.874Z,9.40
2019-04-13T14:50:46.281Z,9.40
2019-04-13T14:52:47.803Z,9.40
2019-04-13T14:54:50.088Z,9.40
2019-04-13T14:56:51.555Z,9.40
2019-04-13T14:58:53.171Z,9.30
2019-04-13T15:00:54.552Z,9.30
2019-04-13T15:02:55.949Z,9.30
2019-04-13T15:04:57.346Z,9.20
2019-04-13T15:06:58.789Z,9.10
2019-04-13T15:09:00.182Z,9.10
2019-04-13T15:11:16.583Z,9.00
2019-04-13T15:13:04.900Z,8.80
2019-04-13T15:15:07.208Z,8.80
2019-04-13T15:17:09.835Z,8.90
2019-04-13T15:19:28.207Z,9.00
2019-04-13T15:21:20.241Z,9.10
2019-04-13T15:23:21.639Z,8.90
2019-04-13T15:25:23.116Z,8.70
2019-04-13T15:27:25.085Z,8.70
2019-04-13T15:29:30.297Z,8.70
2019-04-13T15:31:31.802Z,8.70
2019-04-13T15:33:33.226Z,8.80
2019-04-13T15:35:34.760Z,8.90
2019-04-13T15:37:41.889Z,9.00
2019-04-13T15:39:43.618Z,8.90
2019-04-13T15:41:57.453Z,9.00
2019-04-13T15:43:48.465Z,8.90
2019-04-13T15:45:51.021Z,8.80
2019-04-13T15:47:53.168Z,8.80
2019-04-13T15:49:54.618Z,8.80
2019-04-13T15:51:57.143Z,8.80
2019-04-13T15:54:02.024Z,8.80
2019-04-13T15:56:02.495Z,8.80
2019-04-13T15:58:04.451Z,8.80
2019-04-13T16:00:06.820Z,8.70
2019-04-13T16:02:08.269Z,8.70
2019-04-13T16:04:09.673Z,8.70
2019-04-13T16:06:11.053Z,8.60
2019-04-13T16:08:13.580Z,8.50
2019-04-13T16:10:19.998Z,8.40
2019-04-13T16:12:25.931Z,8.40
2019-04-13T16:14:27.337Z,8.40
2019-04-13T16:16:31.474Z,8.50
2019-04-13T16:18:32.523Z,8.50
2019-04-13T16:20:33.975Z,8.40
2019-04-13T16:22:36.494Z,8.40
2019-04-13T16:24:37.952Z,8.40
2019-04-13T16:26:39.326Z,8.20
2019-04-13T16:28:46.150Z,8.10
2019-04-13T16:31:05.325Z,8.10
2019-04-13T16:33:15.194Z,8.20
2019-04-13T16:35:28.643Z,8.10
2019-04-13T16:37:32.097Z,8.00
2019-04-13T16:39:34.740Z,8.00
2019-04-13T16:41:36.271Z,7.90
2019-04-13T16:43:40.864Z,7.90
2019-04-13T16:45:44.443Z,7.80
2019-04-13T16:47:47.725Z,7.80
2019-04-13T16:49:51.039Z,7.90
2019-04-13T16:51:57.027Z,7.90
2019-04-13T16:54:02.031Z,7.90
2019-04-13T16:56:23.020Z,7.90
2019-04-13T16:58:26.412Z,7.80
2019-04-13T17:00:47.493Z,7.80
2019-04-13T17:02:54.690Z,7.80
2019-04-13T17:04:58.753Z,7.70
2019-04-13T17:07:01.209Z,7.70
2019-04-13T17:09:04.286Z,7.70
2019-04-13T17:11:06.932Z,7.70
2019-04-13T17:13:09.580Z,7.70
2019-04-13T17:15:11.222Z,7.70
2019-04-13T17:17:13.541Z,7.60
2019-04-13T17:19:26.217Z,7.50
2019-04-13T17:21:33.516Z,7.40
2019-04-13T17:23:46.344Z,7.30
2019-04-13T17:25:49.893Z,7.30
2019-04-13T17:28:05.988Z,7.20
2019-04-13T17:30:13.256Z,7.10
2019-04-13T17:32:22.798Z,7.10
2019-04-13T17:34:26.171Z,7.10
2019-04-13T17:36:27.694Z,7.00
2019-04-13T17:38:29.374Z,6.90
2019-04-13T17:40:32.647Z,7.00
2019-04-13T17:42:53.332Z,7.00
2019-04-13T17:45:02.756Z,7.00
2019-04-13T17:47:10.084Z,7.00
2019-04-13T17:49:23.356Z,6.90
2019-04-13T17:51:35.766Z,6.90
2019-04-13T17:53:45.261Z,6.90
2019-04-13T17:55:55.595Z,6.80
2019-04-13T17:58:02.571Z,6.80
2019-04-13T18:00:10.196Z,6.70
2019-04-13T18:02:30.227Z,6.70
2019-04-13T18:04:37.310Z,6.60
2019-04-13T18:06:57.162Z,6.60
2019-04-13T18:09:01.873Z,6.50
2019-04-13T18:11:08.848Z,6.50
2019-04-13T18:13:12.299Z,6.50
2019-04-13T18:15:18.806Z,6.50
2019-04-13T18:17:24.773Z,6.50
2019-04-13T18:19:26.215Z,6.50
2019-04-13T18:21:28.520Z,6.40
2019-04-13T18:23:29.971Z,6.40
2019-04-13T18:25:40.408Z,6.40
2019-04-13T18:27:34.966Z,6.30
2019-04-13T18:29:36.417Z,6.20
2019-04-13T18:31:38.014Z,6.20
2019-04-13T18:33:39.421Z,6.20
2019-04-13T18:35:44.034Z,6.20
2019-04-13T18:37:45.138Z,6.20
2019-04-13T18:39:49.531Z,6.10
2019-04-13T18:41:50.591Z,6.10
2019-04-13T18:43:52.123Z,6.10
2019-04-13T18:45:53.839Z,6.10
2019-04-13T18:47:55.613Z,6.10
2019-04-13T18:49:57.389Z,6.00
2019-04-13T18:51:58.853Z,5.90
2019-04-13T18:54:00.844Z,5.90
2019-04-13T18:56:02.618Z,5.80
2019-04-13T18:58:05.461Z,5.90
2019-04-13T19:00:09.393Z,5.90
2019-04-13T19:02:11.119Z,5.90
2019-04-13T19:04:12.507Z,5.90
2019-04-13T19:06:26.318Z,5.80
2019-04-13T19:08:17.252Z,5.80
2019-04-13T19:10:18.636Z,5.80
2019-04-13T19:12:20.018Z,5.80
2019-04-13T19:14:21.520Z,5.80
2019-04-13T19:16:22.893Z,5.80
2019-04-13T19:18:24.282Z,5.70
2019-04-13T19:20:25.676Z,5.70
2019-04-13T19:22:27.057Z,5.70
2019-04-13T19:24:28.421Z,5.70
2019-04-13T19:26:29.837Z,5.70
2019-04-13T19:28:31.258Z,5.70
2019-04-13T19:30:33.470Z,5.70
2019-04-13T19:32:35.336Z,5.70
2019-04-13T19:34:36.971Z,5.70
2019-04-13T19:36:38.676Z,5.70
2019-04-13T19:38:40.588Z,5.70
2019-04-13T19:40:42.279Z,5.60
2019-04-13T19:42:43.791Z,5.60
2019-04-13T19:44:45.545Z,5.60
2019-04-13T19:46:47.298Z,5.60
2019-04-13T19:48:49.086Z,5.60
2019-04-13T19:50:50.960Z,5.60
2019-04-13T19:53:06.411Z,5.60
2019-04-13T19:55:08.724Z,5.50
2019-04-13T19:57:10.677Z,5.60
2019-04-13T19:59:12.373Z,5.60
2019-04-13T20:01:15.944Z,5.50
2019-04-13T20:03:17.990Z,5.40
2019-04-13T20:05:19.674Z,5.40
2019-04-13T20:07:21.605Z,5.30
2019-04-13T20:09:24.610Z,5.30
2019-04-13T20:11:26.224Z,5.30
2019-04-13T20:13:39.023Z,5.20
2019-04-13T20:15:31.452Z,5.20
2019-04-13T20:17:33.489Z,5.20
2019-04-13T20:19:35.255Z,5.20
2019-04-13T20:21:37.258Z,5.10
2019-04-13T20:23:39.053Z,5.10
2019-04-13T20:25:43.881Z,5.00
2019-04-13T20:27:47.754Z,5.00
2019-04-13T20:29:49.526Z,4.90
2019-04-13T20:31:51.449Z,4.90
2019-04-13T20:33:53.070Z,5.00
2019-04-13T20:36:02.937Z,4.90
2019-04-13T20:38:00.475Z,4.90
2019-04-13T20:40:09.919Z,4.90
2019-04-13T20:42:18.198Z,4.90
2019-04-13T20:44:17.913Z,4.90
2019-04-13T20:46:19.276Z,4.90
2019-04-13T20:48:22.916Z,4.80
2019-04-13T20:50:25.239Z,4.70
2019-04-13T20:52:28.922Z,4.70
2019-04-13T20:54:31.048Z,4.70
2019-04-13T20:56:34.022Z,4.60
2019-04-13T20:58:35.938Z,4.60
2019-04-13T21:00:37.811Z,4.60
2019-04-13T21:02:39.683Z,4.50
2019-04-13T21:04:41.744Z,4.40
2019-04-13T21:06:43.990Z,4.40
2019-04-13T21:08:45.829Z,4.30
2019-04-13T21:10:47.928Z,4.40
2019-04-13T21:12:49.765Z,4.40
2019-04-13T21:14:52.188Z,4.40
2019-04-13T21:16:56.025Z,4.30
2019-04-13T21:18:58.128Z,4.30
2019-04-13T21:21:00.022Z,4.20
2019-04-13T21:23:01.813Z,4.10
2019-04-13T21:25:05.643Z,4.10
2019-04-13T21:27:07.493Z,4.10
2019-04-13T21:29:11.324Z,4.10
2019-04-13T21:31:13.179Z,4.10
2019-04-13T21:33:16.902Z,4.10
2019-04-13T21:35:18.876Z,4.10
2019-04-13T21:37:20.709Z,4.10
2019-04-13T21:39:22.521Z,4.20
2019-04-13T21:41:24.540Z,4.20
2019-04-13T21:43:26.248Z,4.20
2019-04-13T21:45:29.563Z,4.20
2019-04-13T21:47:31.372Z,4.20
2019-04-13T21:49:33.972Z,4.20
2019-04-13T21:51:44.469Z,4.20
2019-04-13T21:53:48.483Z,4.20
2019-04-13T21:55:50.494Z,4.30
2019-04-13T21:57:52.266Z,4.30
2019-04-13T21:59:54.130Z,4.30
2019-04-13T22:02:04.897Z,4.30
2019-04-13T22:04:08.747Z,4.30
2019-04-13T22:06:10.743Z,4.30
2019-04-13T22:08:12.670Z,4.30
2019-04-13T22:10:15.758Z,4.30
2019-04-13T22:12:17.887Z,4.30
2019-04-13T22:14:32.553Z,4.40
2019-04-13T22:16:23.791Z,4.40
2019-04-13T22:18:25.803Z,4.40
2019-04-13T22:20:29.722Z,4.40
2019-04-13T22:22:34.227Z,4.40
2019-04-13T22:24:35.959Z,4.40
2019-04-13T22:26:37.587Z,4.30
2019-04-13T22:28:41.134Z,4.30
2019-04-13T22:30:47.809Z,4.40
2019-04-13T22:32:50.123Z,4.40
2019-04-13T22:34:58.712Z,4.40
2019-04-13T22:37:01.582Z,4.40
2019-04-13T22:39:06.017Z,4.50
2019-04-13T22:41:08.961Z,4.40
2019-04-13T22:43:11.182Z,4.40
2019-04-13T22:45:15.227Z,4.40
2019-04-13T22:47:19.357Z,4.40
2019-04-13T22:49:25.937Z,4.40
2019-04-13T22:51:31.618Z,4.40
2019-04-13T22:53:39.477Z,4.40
2019-04-13T22:55:43.062Z,4.40
2019-04-13T22:57:48.438Z,4.40
2019-04-13T22:59:50.812Z,4.40
2019-04-13T23:02:03.787Z,4.40
2019-04-13T23:04:05.974Z,4.40
2019-04-13T23:06:07.848Z,4.40
2019-04-13T23:08:09.589Z,4.40
2019-04-13T23:10:11.686Z,4.40
2019-04-13T23:12:15.949Z,4.40
2019-04-13T23:14:17.905Z,4.40
2019-04-13T23:16:19.797Z,4.40
2019-04-13T23:18:21.801Z,4.40
2019-04-13T23:20:23.642Z,4.40
2019-04-13T23:22:25.573Z,4.40
2019-04-13T23:24:29.983Z,4.50
2019-04-13T23:26:31.890Z,4.40
2019-04-13T23:28:33.810Z,4.40
2019-04-13T23:30:35.915Z,4.40
2019-04-13T23:32:40.161Z,4.40
2019-04-13T23:34:42.212Z,4.40
2019-04-13T23:36:44.399Z,4.40
2019-04-13T23:38:46.496Z,4.40
2019-04-13T23:40:51.132Z,4.40
2019-04-13T23:42:52.966Z,4.40
2019-04-13T23:45:09.101Z,4.40
2019-04-13T23:46:59.057Z,4.40
2019-04-13T23:49:01.316Z,4.40
2019-04-13T23:51:03.505Z,4.40
2019-04-13T23:53:05.525Z,4.40
2019-04-13T23:55:09.758Z,4.30
2019-04-13T23:57:29.291Z,4.30
2019-04-13T23:59:50.250Z,4.30
